Catterick, United Kingdom
Current Conditions -  °F | °C
As of 1:50 AM on Saturday 29 Nov 2014 (Local Time) from EGXE Reporting Station
Haze Haze  
Wind Chill: 46°   Ceiling: 800
Heat Index: 48°   Visibility: 1.9mi
Dew Point: 46°   Wind: 5mph
Humidity: 93%   Direction: 40°NE
Pressure: 29.85"   Gusts: NA
Location:  54.38°N, 1.63°W
Report Text: EGXE 290150Z AUTO 04004KT 3100 BR OVC008/// 09/08 Q1011 RERA
Loading
Personal Weather Stations






























Interactive Weather Map New forecast layout! Learn more

10-Day Weather Forecast

Advertisements
Track Severe Weather on mobile